Flight Track Log - Related Links

Times and Time Zones

All times are in EDT time to prevent confusion due to time zone crossing. See the FFT783 flight status page for this flight to view local times or setup timezone preferences in your user account.

Time Position Orientation Groundspeed Altitude Reporting Facility
EDT Latitude Longitude Course Direction KTS MPH feet Rate Location/Type
Mon 11:41:39 AM 39.8560 -104.6740 70° East 34 39  Level FlightAware ADS-B
Mon 11:41:53 AM 39.8570 -104.6720 57° Northeast 18 21 818 Level FlightAware ADS-B
Mon 11:44:00 AM 39.8111 -104.9391 257° West  Level FlightAware Approximate
Mon 11:44:53 AM 39.8650 -104.6620 259° West 30 35  Level FlightAware ADS-B
Mon 11:45:00 AM 39.7897 -105.0674 259° West  Level FlightAware Approximate
Mon 11:45:19 AM 39.8650 -104.6580 90° East 30 35  Level FlightAware ADS-B
Mon 11:47:00 AM 39.8032 -104.8640 257° West  Level Estimated
Mon 11:48:00 AM 39.7663 -104.9862 259° West  Level Estimated
Mon 11:48:59 AM 39.8250 -104.6430 270° West 168 193 6,000  Level FlightAware ADS-B
Mon 11:49:00 AM 39.7665 -105.1174 270° West  Level FlightAware Approximate
Mon 11:49:26 AM 39.8040 -104.6520 198° South 202 232 6,400  Level FlightAware ADS-B
Mon 11:49:41 AM 39.7940 -104.6660 227° Southwest 220 253 6,700 878 Climbing FlightAware ADS-B
Mon 11:50:07 AM 39.7730 -104.6930 225° Southwest 263 303 7,000 1,286 Climbing FlightAware ADS-B
Mon 11:50:23 AM 39.7620 -104.7150 237° Southwest 272 313 7,600 2,357 Climbing FlightAware ADS-B
Mon 11:50:35 AM 39.7580 -104.7330 254° West 277 319 8,100 2,571 Climbing FlightAware ADS-B
Mon 11:51:05 AM 39.7620 -104.7850 276° West 287 330 9,400 2,471 Climbing FlightAware ADS-B
Mon 11:51:43 AM 39.7680 -104.8510 277° West 301 346 10,900 2,500 Climbing FlightAware ADS-B
Mon 11:52:17 AM 39.7730 -104.9120 276° West 305 351 12,400 2,707 Climbing FlightAware ADS-B
Mon 11:53:05 AM 39.7720 -105.0020 269° West 309 356 14,600 2,093 Climbing FlightAware ADS-B
Mon 11:53:43 AM 39.7640 -105.0760 262° West 342 394 15,400 1,250 Climbing FlightAware ADS-B
Mon 11:54:17 AM 39.7570 -105.1460 263° West 365 420 16,100 1,692 Climbing FlightAware ADS-B
Mon 11:55:01 AM 39.7460 -105.2440 262° West 376 433 17,600 1,929 Climbing FlightAware ADS-B
Mon 11:55:41 AM 39.7360 -105.3350 262° West 383 441 18,800 1,786 Climbing FlightAware ADS-B
Mon 11:56:25 AM 39.7250 -105.4360 262° West 394 453 20,100 1,773 Climbing FlightAware ADS-B
Mon 11:57:09 AM 39.7130 -105.5410 262° West 403 464 21,400 1,683 Climbing FlightAware ADS-B
Mon 11:57:47 AM 39.7030 -105.6340 262° West 411 473 22,400 1,500 Climbing FlightAware ADS-B
Mon 11:58:33 AM 39.6910 -105.7430 262° West 420 483 23,500 1,500 Climbing FlightAware ADS-B
Mon 11:59:15 AM 39.6790 -105.8520 262° West 426 490 24,600 1,463 Climbing FlightAware ADS-B
Mon 11:59:55 AM 39.6680 -105.9500 262° West 433 498 25,500 1,275 Climbing FlightAware ADS-B
Mon 12:00:35 PM 39.6560 -106.0570 262° West 439 505 26,300 1,244 Climbing FlightAware ADS-B
Mon 12:01:17 PM 39.6430 -106.1680 261° West 444 511 27,200 1,333 Climbing FlightAware ADS-B
Mon 12:01:47 PM 39.6340 -106.2440 261° West 447 514 27,900 1,371 Climbing FlightAware ADS-B
Mon 12:02:27 PM 39.6130 -106.3510 256° West 456 525 28,800 1,116 Climbing FlightAware ADS-B
Mon 12:03:13 PM 39.5770 -106.4670 248° West 468 539 29,500 1,023 Climbing FlightAware ADS-B
Mon 12:03:55 PM 39.5420 -106.5760 247° West 473 544 30,300 1,171 Climbing FlightAware ADS-B
Mon 12:04:35 PM 39.5080 -106.6830 248° West 473 544 31,100 1,537 Climbing FlightAware ADS-B
Mon 12:05:17 PM 39.4720 -106.7930 247° West 463 533 32,400 1,429 Climbing FlightAware ADS-B
Mon 12:05:59 PM 39.4400 -106.8960 248° West 462 532 33,100 1,171 Climbing FlightAware ADS-B
Mon 12:06:39 PM 39.4120 -107.0050 252° West 456 525 34,000 1,020 Climbing FlightAware ADS-B
Mon 12:07:39 PM 39.3747 -107.1525 252° West 453 521 34,800 934 Climbing Denver Center
Mon 12:08:41 PM 39.3364 -107.3011 252° West 455 524 35,900 529 Climbing Denver Center
Mon 12:09:55 PM 39.2925 -107.4739 252° West 453 521 36,000 44 Climbing Denver Center
Mon 12:10:57 PM 39.2489 -107.6447 252° West 448 516 36,000  Level Denver Center
Mon 12:11:59 PM 39.2050 -107.8172 252° West 452 520 36,000  Level Denver Center
Mon 12:13:31 PM 39.1483 -108.0358 252° West 451 519 36,000  Level Salt Lake Center
Mon 12:14:04 PM 39.1233 -108.1328 252° West 442 509 36,000  Level Denver Center
Mon 12:15:18 PM 39.0861 -108.2781 252° West 444 511 36,000  Level Denver Center
Mon 12:16:20 PM 39.0322 -108.4761 251° West 456 525 36,000  Level Denver Center
Mon 12:17:22 PM 38.9939 -108.6217 251° West 447 514 36,000  Level Denver Center
Mon 12:18:24 PM 38.9486 -108.7914 251° West 448 516 36,000  Level Denver Center
Mon 12:19:26 PM 38.9158 -108.9122 251° West 447 514 36,000  Level Denver Center
Mon 12:20:28 PM 38.8639 -109.1042 251° West 443 510 36,000  Level Denver Center
Mon 12:21:30 PM 38.8253 -109.2492 251° West 447 514 36,000  Level Denver Center
Mon 12:22:32 PM 38.7814 -109.3892 248° West 444 511 36,000  Level Denver Center
Mon 12:23:34 PM 38.7128 -109.5458 241° Southwest 454 522 36,000  Level Denver Center
Mon 12:24:37 PM 38.6533 -109.6778 240° Southwest 447 514 36,000  Level Denver Center
Mon 12:25:39 PM 38.5844 -109.8353 241° Southwest 453 521 36,000  Level Denver Center
Mon 12:26:41 PM 38.5242 -109.9697 240° Southwest 454 522 36,000  Level Denver Center
Mon 12:27:43 PM 38.4553 -110.1253 241° Southwest 451 519 36,000  Level Denver Center
Mon 12:28:45 PM 38.3956 -110.2578 240° Southwest 449 517 36,000  Level Denver Center
Mon 12:29:47 PM 38.3256 -110.4147 240° Southwest 455 524 36,000  Level Denver Center
Mon 12:30:49 PM 38.2647 -110.5481 240° Southwest 455 524 36,000  Level Denver Center
Mon 12:32:08 PM 38.1867 -110.7275 241° Southwest 454 522 36,000  Level Salt Lake Center
Mon 12:33:10 PM 38.1156 -110.8814 240° Southwest 452 520 36,000 -194 Level Salt Lake Center
Mon 12:34:12 PM 38.0569 -111.0097 240° Southwest 451 519 35,600 -629 Descending Salt Lake Center
Mon 12:35:14 PM 37.9944 -111.1456 240° Southwest 448 516 34,700 -1,000 Descending Salt Lake Center
Mon 12:37:18 PM 37.8539 -111.4439 239° Southwest 448 516 32,500 -1,129 Descending Salt Lake Center
Mon 12:38:20 PM 37.7950 -111.5783 241° Southwest 439 505 31,200 -1,210 Descending Salt Lake Center
Mon 12:39:22 PM 37.7325 -111.7061 238° Southwest 430 495 30,000 -581 Descending Salt Lake Center
Mon 12:40:24 PM 37.6725 -111.8356 240° Southwest 427 491 30,000  Level Salt Lake Center
Mon 12:42:24 PM 37.5506 -112.0919 239° Southwest 425 489 30,000  Level Denver Center
Mon 12:43:36 PM 37.4744 -112.2464 238° Southwest 432 497 30,000 -282 Level Los Angeles Center
Mon 12:49:30 PM 37.0930 -113.0410 238° Southwest 439 505 28,000 -302 Descending FlightAware ADS-B
Mon 12:50:14 PM 37.0470 -113.1350 239° Southwest 434 499 28,000  Level FlightAware ADS-B
Mon 12:50:52 PM 37.0060 -113.2190 239° Southwest 434 499 28,000  Level FlightAware ADS-B
Mon 12:51:32 PM 36.9660 -113.3000 238° Southwest 434 499 28,000 -286 Level FlightAware ADS-B
Mon 12:52:16 PM 36.9180 -113.3980 239° Southwest 428 493 27,600 -966 Descending FlightAware ADS-B
Mon 12:52:59 PM 36.8750 -113.4850 238° Southwest 421 484 26,600 -1,923 Descending FlightAware ADS-B
Mon 12:53:34 PM 36.8380 -113.5600 238° Southwest 439 505 25,100 -2,122 Descending FlightAware ADS-B
Mon 12:54:21 PM 36.7870 -113.6620 238° Southwest 444 511 23,700 -2,045 Descending FlightAware ADS-B
Mon 12:55:02 PM 36.7430 -113.7500 238° Southwest 435 501 22,100 -2,296 Descending FlightAware ADS-B
Mon 12:55:42 PM 36.7000 -113.8370 238° Southwest 428 493 20,600 -2,053 Descending FlightAware ADS-B
Mon 12:56:18 PM 36.6650 -113.9060 238° Southwest 421 484 19,500 -2,025 Descending FlightAware ADS-B
Mon 12:57:02 PM 36.6190 -113.9990 238° Southwest 413 475 17,900 -2,071 Descending FlightAware ADS-B
Mon 12:57:42 PM 36.5770 -114.0810 237° Southwest 404 465 16,600 -1,814 Descending FlightAware ADS-B
Mon 12:58:28 PM 36.5370 -114.1690 241° Southwest 396 456 15,300 -1,786 Descending FlightAware ADS-B
Mon 12:59:06 PM 36.5020 -114.2470 241° Southwest 389 448 14,100 -1,650 Descending FlightAware ADS-B
Mon 12:59:48 PM 36.4660 -114.3240 240° Southwest 377 434 13,100 -1,071 Descending FlightAware ADS-B
Mon 01:00:30 PM 36.4310 -114.4020 241° Southwest 341 392 12,600 -711 Descending FlightAware ADS-B
Mon 01:01:04 PM 36.4060 -114.4560 240° Southwest 319 367 12,200 -600 Descending FlightAware ADS-B
Mon 01:01:20 PM 36.3880 -114.4770 223° Southwest 321 369 12,100 -188 Descending FlightAware ADS-B
Mon 01:01:36 PM 36.3650 -114.4880 201° Southwest 322 371 12,100 -643 Level FlightAware ADS-B
Mon 01:02:16 PM 36.3080 -114.4940 185° South 303 349 11,500 -868 Descending FlightAware ADS-B
Mon 01:02:52 PM 36.2610 -114.4980 184° South 269 310 11,000 -968 Descending FlightAware ADS-B
Mon 01:03:18 PM 36.2310 -114.5090 196° South 254 292 10,500 -1,000 Descending FlightAware ADS-B
Mon 01:03:34 PM 36.2210 -114.5270 235° Southwest 241 277 10,300 -857 Descending FlightAware ADS-B
Mon 01:03:46 PM 36.2180 -114.5430 257° West 234 269 10,100 -1,050 Descending FlightAware ADS-B
Mon 01:04:14 PM 36.2140 -114.5800 262° West 229 264 9,600 -1,038 Descending FlightAware ADS-B
Mon 01:04:38 PM 36.2100 -114.6100 261° West 225 259 9,200 -577 Descending FlightAware ADS-B
Mon 01:05:06 PM 36.2060 -114.6470 262° West 228 262 9,100 -387 Descending FlightAware ADS-B
Mon 01:05:40 PM 36.2020 -114.6890 263° West 216 249 8,800 -677 Descending FlightAware ADS-B
Mon 01:06:08 PM 36.1930 -114.7220 251° West 202 232 8,400 -750 Descending FlightAware ADS-B
Mon 01:06:36 PM 36.1860 -114.7520 254° West 193 222 8,100 -321 Descending FlightAware ADS-B
Mon 01:07:04 PM 36.1780 -114.7820 252° West 194 223 8,100 -300 Level FlightAware ADS-B
Mon 01:07:16 PM 36.1750 -114.7930 251° West 193 222 7,900 -1,059 Descending FlightAware ADS-B
Mon 01:07:38 PM 36.1690 -114.8180 253° West 193 222 7,500 -1,080 Descending FlightAware ADS-B
Mon 01:08:06 PM 36.1610 -114.8470 251° West 193 222 7,000 -1,071 Descending FlightAware ADS-B
Mon 01:08:34 PM 36.1540 -114.8760 253° West 188 216 6,500 -964 Descending FlightAware ADS-B
Mon 01:09:02 PM 36.1460 -114.9050 251° West 186 214 6,100 -429 Descending FlightAware ADS-B
Mon 01:09:30 PM 36.1390 -114.9320 252° West 183 211 6,100  Level FlightAware ADS-B
Mon 01:09:50 PM 36.1340 -114.9520 253° West 185 213 6,100 -353 Level FlightAware ADS-B
Mon 01:10:04 PM 36.1330 -114.9670 265° West 185 213 5,900 -1,227 Descending FlightAware ADS-B
Mon 01:10:34 PM 36.1350 -115.0000 274° West 190 219 5,200 -1,269 Descending FlightAware ADS-B
Mon 01:10:56 PM 36.1370 -115.0230 276° West 186 214 4,800 -1,393 Descending FlightAware ADS-B
Mon 01:11:30 PM 36.1390 -115.0590 274° West 182 209 3,900 -1,241 Descending FlightAware ADS-B
Mon 01:11:54 PM 36.1400 -115.0830 273° West 175 201 3,600 -643 Descending FlightAware ADS-B
Mon 01:12:26 PM 36.1340 -115.1140 257° West 167 192 3,300 -774 Descending FlightAware ADS-B
Mon 01:12:56 PM 36.1240 -115.1380 243° Southwest 156 180 2,800 -889 Descending FlightAware ADS-B
Mon 01:13:20 PM 36.1080 -115.1480 207° Southwest 157 181 2,500 -514 Descending FlightAware ADS-B
Mon 01:14:06 PM 36.0820 -115.1630 205° Southwest 157 181 2,200 -391 Descending FlightAware ADS-B
Mon 01:21:00 PM 36.0801 -115.1523 219° Southwest  Level Estimated
Mon 01:22:00 PM 36.0801 -115.1523 219° Southwest  Level Estimated

Login

Don't have an account? Register now (free) for customized features, flight alerts, and more!